sensor_id;sensor_type;location;lat;lon;timestamp;P1;durP1;ratioP1;P2;durP2;ratioP2
8716;SDS011;4395;48.554;8.820;2022-08-19T00:01:44;14.93;;;13.43;;
8716;SDS011;4395;48.554;8.820;2022-08-19T00:03:53;14.87;;;12.33;;
8716;SDS011;4395;48.554;8.820;2022-08-19T00:05:56;14.60;;;13.23;;
8716;SDS011;4395;48.554;8.820;2022-08-19T00:08:00;14.53;;;13.13;;
8716;SDS011;4395;48.554;8.820;2022-08-19T00:10:05;15.10;;;13.67;;
8716;SDS011;4395;48.554;8.820;2022-08-19T00:12:09;14.80;;;13.20;;
8716;SDS011;4395;48.554;8.820;2022-08-19T00:14:13;15.53;;;13.93;;
8716;SDS011;4395;48.554;8.820;2022-08-19T00:16:21;14.30;;;12.80;;
8716;SDS011;4395;48.554;8.820;2022-08-19T00:18:27;14.40;;;13.00;;
8716;SDS011;4395;48.554;8.820;2022-08-19T00:20:30;13.93;;;12.63;;
8716;SDS011;4395;48.554;8.820;2022-08-19T00:22:33;14.90;;;13.13;;
8716;SDS011;4395;48.554;8.820;2022-08-19T00:24:36;14.73;;;13.33;;
8716;SDS011;4395;48.554;8.820;2022-08-19T00:26:40;17.33;;;15.43;;
8716;SDS011;4395;48.554;8.820;2022-08-19T00:28:43;14.63;;;12.80;;
8716;SDS011;4395;48.554;8.820;2022-08-19T00:30:47;16.47;;;14.87;;
8716;SDS011;4395;48.554;8.820;2022-08-19T00:32:52;14.27;;;12.90;;
8716;SDS011;4395;48.554;8.820;2022-08-19T00:34:56;15.00;;;13.50;;
8716;SDS011;4395;48.554;8.820;2022-08-19T00:36:59;15.23;;;13.43;;
8716;SDS011;4395;48.554;8.820;2022-08-19T00:39:02;16.93;;;15.13;;
8716;SDS011;4395;48.554;8.820;2022-08-19T00:41:06;16.00;;;14.40;;
8716;SDS011;4395;48.554;8.820;2022-08-19T00:43:10;17.27;;;15.57;;
8716;SDS011;4395;48.554;8.820;2022-08-19T00:45:15;17.30;;;15.60;;
8716;SDS011;4395;48.554;8.820;2022-08-19T00:47:21;18.00;;;14.60;;
8716;SDS011;4395;48.554;8.820;2022-08-19T00:49:28;16.47;;;14.00;;
8716;SDS011;4395;48.554;8.820;2022-08-19T00:51:34;17.30;;;15.60;;
8716;SDS011;4395;48.554;8.820;2022-08-19T00:53:37;16.37;;;14.77;;
8716;SDS011;4395;48.554;8.820;2022-08-19T00:55:40;15.93;;;14.43;;
8716;SDS011;4395;48.554;8.820;2022-08-19T00:57:48;16.17;;;14.53;;
8716;SDS011;4395;48.554;8.820;2022-08-19T00:59:55;15.70;;;14.20;;
8716;SDS011;4395;48.554;8.820;2022-08-19T01:02:03;15.10;;;13.60;;
8716;SDS011;4395;48.554;8.820;2022-08-19T01:04:07;18.63;;;16.60;;
8716;SDS011;4395;48.554;8.820;2022-08-19T01:06:12;18.57;;;15.57;;
8716;SDS011;4395;48.554;8.820;2022-08-19T01:08:21;19.90;;;17.90;;
8716;SDS011;4395;48.554;8.820;2022-08-19T01:10:25;14.47;;;13.13;;
8716;SDS011;4395;48.554;8.820;2022-08-19T01:12:37;17.90;;;16.10;;
8716;SDS011;4395;48.554;8.820;2022-08-19T01:14:41;19.43;;;17.47;;
8716;SDS011;4395;48.554;8.820;2022-08-19T01:16:45;18.60;;;15.50;;
8716;SDS011;4395;48.554;8.820;2022-08-19T01:18:49;17.10;;;15.30;;
8716;SDS011;4395;48.554;8.820;2022-08-19T01:20:52;16.53;;;14.93;;
8716;SDS011;4395;48.554;8.820;2022-08-19T01:23:00;14.90;;;13.40;;
8716;SDS011;4395;48.554;8.820;2022-08-19T01:25:03;18.93;;;16.97;;
8716;SDS011;4395;48.554;8.820;2022-08-19T01:27:15;17.97;;;16.17;;
8716;SDS011;4395;48.554;8.820;2022-08-19T01:29:20;17.70;;;15.90;;
8716;SDS011;4395;48.554;8.820;2022-08-19T01:31:26;17.13;;;15.43;;
8716;SDS011;4395;48.554;8.820;2022-08-19T01:33:33;18.87;;;17.07;;
8716;SDS011;4395;48.554;8.820;2022-08-19T01:35:36;16.77;;;14.97;;
8716;SDS011;4395;48.554;8.820;2022-08-19T01:37:43;19.87;;;17.60;;
8716;SDS011;4395;48.554;8.820;2022-08-19T01:39:49;17.00;;;15.27;;
8716;SDS011;4395;48.554;8.820;2022-08-19T01:41:52;16.40;;;14.73;;
8716;SDS011;4395;48.554;8.820;2022-08-19T01:43:55;19.00;;;16.57;;
8716;SDS011;4395;48.554;8.820;2022-08-19T01:46:18;16.27;;;14.67;;
8716;SDS011;4395;48.554;8.820;2022-08-19T01:48:25;19.63;;;17.63;;
8716;SDS011;4395;48.554;8.820;2022-08-19T01:50:30;17.80;;;15.93;;
8716;SDS011;4395;48.554;8.820;2022-08-19T01:52:34;17.47;;;15.67;;
8716;SDS011;4395;48.554;8.820;2022-08-19T01:54:37;17.43;;;15.73;;
8716;SDS011;4395;48.554;8.820;2022-08-19T01:56:42;20.70;;;18.60;;
8716;SDS011;4395;48.554;8.820;2022-08-19T01:58:46;19.30;;;17.23;;
8716;SDS011;4395;48.554;8.820;2022-08-19T02:00:52;16.33;;;14.73;;
8716;SDS011;4395;48.554;8.820;2022-08-19T02:02:55;16.93;;;15.33;;
8716;SDS011;4395;48.554;8.820;2022-08-19T02:04:57;17.67;;;15.97;;
8716;SDS011;4395;48.554;8.820;2022-08-19T02:07:00;18.50;;;15.93;;
8716;SDS011;4395;48.554;8.820;2022-08-19T02:09:04;18.00;;;16.03;;
8716;SDS011;4395;48.554;8.820;2022-08-19T02:11:07;17.27;;;15.50;;
8716;SDS011;4395;48.554;8.820;2022-08-19T02:13:12;16.80;;;15.00;;
8716;SDS011;4395;48.554;8.820;2022-08-19T02:15:21;23.03;;;19.60;;
8716;SDS011;4395;48.554;8.820;2022-08-19T02:17:24;19.53;;;17.53;;
8716;SDS011;4395;48.554;8.820;2022-08-19T02:19:27;19.10;;;17.10;;
8716;SDS011;4395;48.554;8.820;2022-08-19T02:21:30;18.17;;;16.37;;
8716;SDS011;4395;48.554;8.820;2022-08-19T02:23:33;19.43;;;17.53;;
8716;SDS011;4395;48.554;8.820;2022-08-19T02:25:36;17.30;;;15.43;;
8716;SDS011;4395;48.554;8.820;2022-08-19T02:27:40;16.23;;;14.63;;
8716;SDS011;4395;48.554;8.820;2022-08-19T02:29:46;17.73;;;15.93;;
8716;SDS011;4395;48.554;8.820;2022-08-19T02:31:50;16.87;;;15.13;;
8716;SDS011;4395;48.554;8.820;2022-08-19T02:33:53;17.60;;;15.70;;
8716;SDS011;4395;48.554;8.820;2022-08-19T02:35:57;17.10;;;15.47;;
8716;SDS011;4395;48.554;8.820;2022-08-19T02:38:00;15.63;;;14.13;;
8716;SDS011;4395;48.554;8.820;2022-08-19T02:40:26;17.03;;;15.33;;
8716;SDS011;4395;48.554;8.820;2022-08-19T02:42:29;18.10;;;16.30;;
8716;SDS011;4395;48.554;8.820;2022-08-19T02:44:32;17.40;;;15.67;;
8716;SDS011;4395;48.554;8.820;2022-08-19T02:46:36;16.77;;;15.07;;
8716;SDS011;4395;48.554;8.820;2022-08-19T02:48:39;16.70;;;15.10;;
8716;SDS011;4395;48.554;8.820;2022-08-19T02:50:42;18.00;;;16.27;;
8716;SDS011;4395;48.554;8.820;2022-08-19T02:52:53;19.13;;;17.10;;
8716;SDS011;4395;48.554;8.820;2022-08-19T02:54:56;17.80;;;15.90;;
8716;SDS011;4395;48.554;8.820;2022-08-19T02:57:01;18.50;;;16.50;;
8716;SDS011;4395;48.554;8.820;2022-08-19T02:59:05;16.43;;;14.73;;
8716;SDS011;4395;48.554;8.820;2022-08-19T03:01:11;16.20;;;14.60;;
8716;SDS011;4395;48.554;8.820;2022-08-19T03:03:24;18.67;;;16.87;;
8716;SDS011;4395;48.554;8.820;2022-08-19T03:05:27;18.50;;;16.70;;
8716;SDS011;4395;48.554;8.820;2022-08-19T03:07:50;20.20;;;18.07;;
8716;SDS011;4395;48.554;8.820;2022-08-19T03:09:53;21.33;;;19.10;;
8716;SDS011;4395;48.554;8.820;2022-08-19T03:11:56;19.57;;;17.67;;
8716;SDS011;4395;48.554;8.820;2022-08-19T03:13:59;20.47;;;18.30;;
8716;SDS011;4395;48.554;8.820;2022-08-19T03:16:04;19.93;;;17.93;;
8716;SDS011;4395;48.554;8.820;2022-08-19T03:18:08;22.50;;;19.67;;
8716;SDS011;4395;48.554;8.820;2022-08-19T03:20:14;19.87;;;17.80;;
8716;SDS011;4395;48.554;8.820;2022-08-19T03:22:17;22.40;;;20.10;;
8716;SDS011;4395;48.554;8.820;2022-08-19T03:24:21;24.23;;;21.63;;
8716;SDS011;4395;48.554;8.820;2022-08-19T03:26:24;24.17;;;21.47;;
8716;SDS011;4395;48.554;8.820;2022-08-19T03:28:27;23.27;;;20.90;;
8716;SDS011;4395;48.554;8.820;2022-08-19T03:30:30;24.07;;;21.63;;
8716;SDS011;4395;48.554;8.820;2022-08-19T03:32:33;20.27;;;18.27;;
8716;SDS011;4395;48.554;8.820;2022-08-19T03:34:45;21.60;;;18.20;;
8716;SDS011;4395;48.554;8.820;2022-08-19T03:36:49;24.23;;;19.87;;
8716;SDS011;4395;48.554;8.820;2022-08-19T03:38:54;22.07;;;19.23;;
8716;SDS011;4395;48.554;8.820;2022-08-19T03:41:03;22.87;;;20.47;;
8716;SDS011;4395;48.554;8.820;2022-08-19T03:43:09;23.17;;;20.27;;
8716;SDS011;4395;48.554;8.820;2022-08-19T03:45:12;21.87;;;19.57;;
8716;SDS011;4395;48.554;8.820;2022-08-19T03:47:15;21.97;;;19.70;;
8716;SDS011;4395;48.554;8.820;2022-08-19T03:49:18;25.10;;;22.40;;
8716;SDS011;4395;48.554;8.820;2022-08-19T03:51:29;26.40;;;23.67;;
8716;SDS011;4395;48.554;8.820;2022-08-19T03:53:35;28.80;;;25.90;;
8716;SDS011;4395;48.554;8.820;2022-08-19T03:55:39;29.83;;;25.63;;
8716;SDS011;4395;48.554;8.820;2022-08-19T03:57:42;29.23;;;26.13;;
8716;SDS011;4395;48.554;8.820;2022-08-19T03:59:46;33.73;;;26.50;;
8716;SDS011;4395;48.554;8.820;2022-08-19T04:01:49;27.60;;;24.73;;
8716;SDS011;4395;48.554;8.820;2022-08-19T04:03:52;28.40;;;25.50;;
8716;SDS011;4395;48.554;8.820;2022-08-19T04:05:56;27.87;;;24.87;;
8716;SDS011;4395;48.554;8.820;2022-08-19T04:07:58;31.77;;;26.47;;
8716;SDS011;4395;48.554;8.820;2022-08-19T04:10:03;31.27;;;26.23;;
8716;SDS011;4395;48.554;8.820;2022-08-19T04:12:10;27.93;;;24.90;;
8716;SDS011;4395;48.554;8.820;2022-08-19T04:14:14;28.80;;;25.50;;
8716;SDS011;4395;48.554;8.820;2022-08-19T04:16:18;31.90;;;25.90;;
8716;SDS011;4395;48.554;8.820;2022-08-19T04:18:35;29.67;;;26.57;;
8716;SDS011;4395;48.554;8.820;2022-08-19T04:20:43;29.60;;;26.40;;
8716;SDS011;4395;48.554;8.820;2022-08-19T04:22:47;28.70;;;25.80;;
8716;SDS011;4395;48.554;8.820;2022-08-19T04:24:50;29.67;;;26.57;;
8716;SDS011;4395;48.554;8.820;2022-08-19T04:26:54;30.03;;;25.77;;
8716;SDS011;4395;48.554;8.820;2022-08-19T04:28:57;31.03;;;27.20;;
8716;SDS011;4395;48.554;8.820;2022-08-19T04:31:00;28.50;;;25.57;;
8716;SDS011;4395;48.554;8.820;2022-08-19T04:33:03;30.67;;;26.60;;
8716;SDS011;4395;48.554;8.820;2022-08-19T04:35:06;27.77;;;24.77;;
8716;SDS011;4395;48.554;8.820;2022-08-19T04:37:18;29.43;;;26.30;;
8716;SDS011;4395;48.554;8.820;2022-08-19T04:39:24;29.60;;;26.40;;
8716;SDS011;4395;48.554;8.820;2022-08-19T04:41:48;29.47;;;26.30;;
8716;SDS011;4395;48.554;8.820;2022-08-19T04:44:33;28.47;;;25.37;;
8716;SDS011;4395;48.554;8.820;2022-08-19T04:46:47;30.57;;;26.70;;
8716;SDS011;4395;48.554;8.820;2022-08-19T04:48:52;28.77;;;25.67;;
8716;SDS011;4395;48.554;8.820;2022-08-19T04:50:56;29.23;;;26.23;;
8716;SDS011;4395;48.554;8.820;2022-08-19T04:52:59;31.03;;;25.50;;
8716;SDS011;4395;48.554;8.820;2022-08-19T04:55:02;29.13;;;25.13;;
8716;SDS011;4395;48.554;8.820;2022-08-19T04:57:07;33.57;;;26.80;;
8716;SDS011;4395;48.554;8.820;2022-08-19T04:59:11;30.63;;;27.43;;
8716;SDS011;4395;48.554;8.820;2022-08-19T05:01:18;30.87;;;27.53;;
8716;SDS011;4395;48.554;8.820;2022-08-19T05:03:23;29.17;;;26.07;;
8716;SDS011;4395;48.554;8.820;2022-08-19T05:05:30;29.90;;;26.73;;
8716;SDS011;4395;48.554;8.820;2022-08-19T05:07:45;30.03;;;26.77;;
8716;SDS011;4395;48.554;8.820;2022-08-19T05:09:48;30.07;;;26.77;;
8716;SDS011;4395;48.554;8.820;2022-08-19T05:11:59;30.83;;;27.23;;
8716;SDS011;4395;48.554;8.820;2022-08-19T05:14:02;28.80;;;25.20;;
8716;SDS011;4395;48.554;8.820;2022-08-19T05:16:05;29.27;;;25.80;;
8716;SDS011;4395;48.554;8.820;2022-08-19T05:18:10;29.37;;;26.27;;
8716;SDS011;4395;48.554;8.820;2022-08-19T05:20:30;31.97;;;26.70;;
8716;SDS011;4395;48.554;8.820;2022-08-19T05:22:56;29.87;;;26.50;;
8716;SDS011;4395;48.554;8.820;2022-08-19T05:24:59;29.80;;;26.40;;
8716;SDS011;4395;48.554;8.820;2022-08-19T05:27:13;30.57;;;25.60;;
8716;SDS011;4395;48.554;8.820;2022-08-19T05:29:17;32.30;;;27.50;;
8716;SDS011;4395;48.554;8.820;2022-08-19T05:31:22;32.10;;;27.90;;
8716;SDS011;4395;48.554;8.820;2022-08-19T05:33:26;28.93;;;25.60;;
8716;SDS011;4395;48.554;8.820;2022-08-19T05:35:29;29.07;;;26.00;;
8716;SDS011;4395;48.554;8.820;2022-08-19T05:37:35;28.77;;;25.50;;
8716;SDS011;4395;48.554;8.820;2022-08-19T05:39:38;30.57;;;27.10;;
8716;SDS011;4395;48.554;8.820;2022-08-19T05:41:41;30.13;;;26.93;;
8716;SDS011;4395;48.554;8.820;2022-08-19T05:43:44;29.70;;;26.50;;
8716;SDS011;4395;48.554;8.820;2022-08-19T05:45:47;30.83;;;27.57;;
8716;SDS011;4395;48.554;8.820;2022-08-19T05:47:51;28.37;;;25.23;;
8716;SDS011;4395;48.554;8.820;2022-08-19T05:49:56;29.57;;;26.13;;
8716;SDS011;4395;48.554;8.820;2022-08-19T05:52:01;35.50;;;27.77;;
8716;SDS011;4395;48.554;8.820;2022-08-19T05:54:06;29.83;;;26.63;;
8716;SDS011;4395;48.554;8.820;2022-08-19T05:56:11;28.00;;;24.97;;
8716;SDS011;4395;48.554;8.820;2022-08-19T05:58:17;29.70;;;26.33;;
8716;SDS011;4395;48.554;8.820;2022-08-19T06:00:23;29.50;;;25.03;;
8716;SDS011;4395;48.554;8.820;2022-08-19T06:02:26;27.13;;;23.63;;
8716;SDS011;4395;48.554;8.820;2022-08-19T06:04:30;29.77;;;26.53;;
8716;SDS011;4395;48.554;8.820;2022-08-19T06:06:34;30.83;;;26.40;;
8716;SDS011;4395;48.554;8.820;2022-08-19T06:08:37;29.73;;;26.57;;
8716;SDS011;4395;48.554;8.820;2022-08-19T06:10:40;27.23;;;24.30;;
8716;SDS011;4395;48.554;8.820;2022-08-19T06:12:43;28.90;;;25.63;;
8716;SDS011;4395;48.554;8.820;2022-08-19T06:14:46;28.50;;;25.50;;
8716;SDS011;4395;48.554;8.820;2022-08-19T06:17:02;28.63;;;25.63;;
8716;SDS011;4395;48.554;8.820;2022-08-19T06:19:08;29.33;;;26.23;;
8716;SDS011;4395;48.554;8.820;2022-08-19T06:21:13;28.20;;;25.23;;
8716;SDS011;4395;48.554;8.820;2022-08-19T06:23:17;29.27;;;26.17;;
8716;SDS011;4395;48.554;8.820;2022-08-19T06:25:24;30.70;;;27.40;;
8716;SDS011;4395;48.554;8.820;2022-08-19T06:27:30;29.43;;;26.23;;
8716;SDS011;4395;48.554;8.820;2022-08-19T06:29:34;29.50;;;25.57;;
8716;SDS011;4395;48.554;8.820;2022-08-19T06:31:40;28.27;;;25.20;;
8716;SDS011;4395;48.554;8.820;2022-08-19T06:33:44;27.17;;;24.37;;
8716;SDS011;4395;48.554;8.820;2022-08-19T06:35:50;29.37;;;25.73;;
8716;SDS011;4395;48.554;8.820;2022-08-19T06:37:53;29.00;;;25.53;;
8716;SDS011;4395;48.554;8.820;2022-08-19T06:39:57;28.33;;;25.50;;
8716;SDS011;4395;48.554;8.820;2022-08-19T06:42:01;26.27;;;23.47;;
8716;SDS011;4395;48.554;8.820;2022-08-19T06:44:11;28.27;;;25.43;;
8716;SDS011;4395;48.554;8.820;2022-08-19T06:46:15;26.87;;;24.03;;
8716;SDS011;4395;48.554;8.820;2022-08-19T06:48:20;28.60;;;25.60;;
8716;SDS011;4395;48.554;8.820;2022-08-19T06:50:26;25.83;;;23.23;;
8716;SDS011;4395;48.554;8.820;2022-08-19T06:52:29;27.20;;;23.77;;
8716;SDS011;4395;48.554;8.820;2022-08-19T06:54:34;28.57;;;25.30;;
8716;SDS011;4395;48.554;8.820;2022-08-19T06:56:58;27.20;;;24.30;;
8716;SDS011;4395;48.554;8.820;2022-08-19T06:59:03;28.30;;;25.37;;
8716;SDS011;4395;48.554;8.820;2022-08-19T07:01:08;27.37;;;24.53;;
8716;SDS011;4395;48.554;8.820;2022-08-19T07:03:11;26.83;;;23.93;;
8716;SDS011;4395;48.554;8.820;2022-08-19T07:05:15;25.80;;;23.20;;
8716;SDS011;4395;48.554;8.820;2022-08-19T07:07:20;27.90;;;24.93;;
8716;SDS011;4395;48.554;8.820;2022-08-19T07:09:23;27.90;;;25.10;;
8716;SDS011;4395;48.554;8.820;2022-08-19T07:11:26;25.93;;;23.33;;
8716;SDS011;4395;48.554;8.820;2022-08-19T07:13:31;27.23;;;24.50;;
8716;SDS011;4395;48.554;8.820;2022-08-19T07:15:35;27.63;;;23.93;;
8716;SDS011;4395;48.554;8.820;2022-08-19T07:17:40;25.57;;;22.87;;
8716;SDS011;4395;48.554;8.820;2022-08-19T07:19:45;24.90;;;22.20;;
8716;SDS011;4395;48.554;8.820;2022-08-19T07:21:49;27.50;;;23.97;;
8716;SDS011;4395;48.554;8.820;2022-08-19T07:23:54;26.47;;;23.67;;
8716;SDS011;4395;48.554;8.820;2022-08-19T07:25:58;25.87;;;23.17;;
8716;SDS011;4395;48.554;8.820;2022-08-19T07:28:07;25.00;;;22.47;;
8716;SDS011;4395;48.554;8.820;2022-08-19T07:30:26;25.87;;;23.37;;
8716;SDS011;4395;48.554;8.820;2022-08-19T07:32:29;24.50;;;21.90;;
8716;SDS011;4395;48.554;8.820;2022-08-19T07:34:33;24.37;;;22.07;;
8716;SDS011;4395;48.554;8.820;2022-08-19T07:36:40;24.57;;;22.27;;
8716;SDS011;4395;48.554;8.820;2022-08-19T07:38:45;23.60;;;21.30;;
8716;SDS011;4395;48.554;8.820;2022-08-19T07:40:49;23.93;;;21.57;;
8716;SDS011;4395;48.554;8.820;2022-08-19T07:42:52;22.77;;;20.53;;
8716;SDS011;4395;48.554;8.820;2022-08-19T07:44:55;23.57;;;21.27;;
8716;SDS011;4395;48.554;8.820;2022-08-19T07:47:01;23.60;;;21.10;;
8716;SDS011;4395;48.554;8.820;2022-08-19T07:49:06;21.73;;;19.63;;
8716;SDS011;4395;48.554;8.820;2022-08-19T07:51:10;22.00;;;19.90;;
8716;SDS011;4395;48.554;8.820;2022-08-19T07:53:16;21.70;;;19.63;;
8716;SDS011;4395;48.554;8.820;2022-08-19T07:55:21;21.57;;;19.40;;
8716;SDS011;4395;48.554;8.820;2022-08-19T07:57:43;21.33;;;18.77;;
8716;SDS011;4395;48.554;8.820;2022-08-19T07:59:46;20.10;;;18.10;;
8716;SDS011;4395;48.554;8.820;2022-08-19T08:01:49;20.37;;;18.20;;
8716;SDS011;4395;48.554;8.820;2022-08-19T08:03:56;21.43;;;19.33;;
8716;SDS011;4395;48.554;8.820;2022-08-19T08:06:17;20.10;;;18.00;;
8716;SDS011;4395;48.554;8.820;2022-08-19T08:08:37;19.93;;;17.50;;
8716;SDS011;4395;48.554;8.820;2022-08-19T08:10:58;18.70;;;16.80;;
8716;SDS011;4395;48.554;8.820;2022-08-19T08:13:01;19.23;;;17.33;;
8716;SDS011;4395;48.554;8.820;2022-08-19T08:15:12;19.23;;;17.37;;
8716;SDS011;4395;48.554;8.820;2022-08-19T08:17:18;18.90;;;17.10;;
8716;SDS011;4395;48.554;8.820;2022-08-19T08:19:45;22.00;;;17.50;;
8716;SDS011;4395;48.554;8.820;2022-08-19T08:21:52;17.93;;;16.00;;
8716;SDS011;4395;48.554;8.820;2022-08-19T08:23:56;17.53;;;15.50;;
8716;SDS011;4395;48.554;8.820;2022-08-19T08:26:03;18.03;;;16.30;;
8716;SDS011;4395;48.554;8.820;2022-08-19T08:28:06;17.40;;;15.60;;
8716;SDS011;4395;48.554;8.820;2022-08-19T08:30:19;16.50;;;14.80;;
8716;SDS011;4395;48.554;8.820;2022-08-19T08:32:26;17.30;;;15.70;;
8716;SDS011;4395;48.554;8.820;2022-08-19T08:34:28;17.43;;;15.73;;
8716;SDS011;4395;48.554;8.820;2022-08-19T08:36:33;17.57;;;15.37;;
8716;SDS011;4395;48.554;8.820;2022-08-19T08:38:43;17.00;;;15.30;;
8716;SDS011;4395;48.554;8.820;2022-08-19T08:40:48;17.30;;;15.50;;
8716;SDS011;4395;48.554;8.820;2022-08-19T08:42:57;17.13;;;14.97;;
8716;SDS011;4395;48.554;8.820;2022-08-19T08:45:12;16.20;;;14.43;;
8716;SDS011;4395;48.554;8.820;2022-08-19T08:47:17;15.20;;;13.70;;
8716;SDS011;4395;48.554;8.820;2022-08-19T08:49:29;16.47;;;14.93;;
8716;SDS011;4395;48.554;8.820;2022-08-19T08:51:42;15.27;;;13.67;;
8716;SDS011;4395;48.554;8.820;2022-08-19T08:53:59;15.00;;;13.50;;
8716;SDS011;4395;48.554;8.820;2022-08-19T08:56:10;15.47;;;13.90;;
8716;SDS011;4395;48.554;8.820;2022-08-19T08:58:21;14.17;;;12.97;;
8716;SDS011;4395;48.554;8.820;2022-08-19T09:00:32;14.30;;;13.00;;
8716;SDS011;4395;48.554;8.820;2022-08-19T09:02:39;14.77;;;13.27;;
8716;SDS011;4395;48.554;8.820;2022-08-19T09:04:44;14.53;;;13.23;;
8716;SDS011;4395;48.554;8.820;2022-08-19T09:06:51;14.07;;;12.77;;
8716;SDS011;4395;48.554;8.820;2022-08-19T09:09:25;14.63;;;13.23;;
8716;SDS011;4395;48.554;8.820;2022-08-19T09:11:39;14.10;;;12.80;;
8716;SDS011;4395;48.554;8.820;2022-08-19T09:13:58;14.90;;;13.50;;
8716;SDS011;4395;48.554;8.820;2022-08-19T09:16:09;14.43;;;13.03;;
8716;SDS011;4395;48.554;8.820;2022-08-19T09:18:15;14.00;;;12.60;;
8716;SDS011;4395;48.554;8.820;2022-08-19T09:20:20;14.30;;;13.00;;
8716;SDS011;4395;48.554;8.820;2022-08-19T09:22:28;14.20;;;12.83;;
8716;SDS011;4395;48.554;8.820;2022-08-19T09:24:31;14.50;;;12.90;;
8716;SDS011;4395;48.554;8.820;2022-08-19T09:26:34;13.90;;;12.60;;
8716;SDS011;4395;48.554;8.820;2022-08-19T09:28:53;13.90;;;12.53;;
8716;SDS011;4395;48.554;8.820;2022-08-19T09:30:58;13.53;;;12.40;;
8716;SDS011;4395;48.554;8.820;2022-08-19T09:33:04;13.53;;;12.33;;
8716;SDS011;4395;48.554;8.820;2022-08-19T09:35:08;12.73;;;11.43;;
8716;SDS011;4395;48.554;8.820;2022-08-19T09:37:12;12.80;;;11.70;;
8716;SDS011;4395;48.554;8.820;2022-08-19T09:39:16;14.63;;;13.30;;
8716;SDS011;4395;48.554;8.820;2022-08-19T09:41:21;13.77;;;12.60;;
8716;SDS011;4395;48.554;8.820;2022-08-19T09:43:29;14.00;;;12.53;;
8716;SDS011;4395;48.554;8.820;2022-08-19T09:45:48;13.30;;;12.13;;
8716;SDS011;4395;48.554;8.820;2022-08-19T09:47:51;13.43;;;11.93;;
8716;SDS011;4395;48.554;8.820;2022-08-19T09:49:55;13.07;;;11.83;;
8716;SDS011;4395;48.554;8.820;2022-08-19T09:51:59;13.33;;;12.03;;
8716;SDS011;4395;48.554;8.820;2022-08-19T09:54:03;13.70;;;12.33;;
8716;SDS011;4395;48.554;8.820;2022-08-19T09:56:07;17.47;;;15.83;;
8716;SDS011;4395;48.554;8.820;2022-08-19T09:58:10;15.23;;;12.50;;
8716;SDS011;4395;48.554;8.820;2022-08-19T10:00:13;13.93;;;12.73;;
8716;SDS011;4395;48.554;8.820;2022-08-19T10:02:16;13.93;;;12.70;;
8716;SDS011;4395;48.554;8.820;2022-08-19T10:04:22;14.60;;;13.30;;
8716;SDS011;4395;48.554;8.820;2022-08-19T10:06:45;16.20;;;12.87;;
8716;SDS011;4395;48.554;8.820;2022-08-19T10:08:53;15.57;;;14.17;;
8716;SDS011;4395;48.554;8.820;2022-08-19T10:10:57;14.70;;;13.50;;
8716;SDS011;4395;48.554;8.820;2022-08-19T10:13:23;15.07;;;13.47;;
8716;SDS011;4395;48.554;8.820;2022-08-19T10:15:27;14.57;;;13.17;;
8716;SDS011;4395;48.554;8.820;2022-08-19T10:17:45;14.50;;;13.10;;
8716;SDS011;4395;48.554;8.820;2022-08-19T10:19:55;15.07;;;13.57;;
8716;SDS011;4395;48.554;8.820;2022-08-19T10:21:58;14.17;;;12.77;;
8716;SDS011;4395;48.554;8.820;2022-08-19T10:24:10;14.33;;;12.93;;
8716;SDS011;4395;48.554;8.820;2022-08-19T10:26:14;14.43;;;13.00;;
8716;SDS011;4395;48.554;8.820;2022-08-19T10:28:19;14.40;;;13.10;;
8716;SDS011;4395;48.554;8.820;2022-08-19T10:30:25;15.60;;;14.03;;
8716;SDS011;4395;48.554;8.820;2022-08-19T10:32:29;13.47;;;12.07;;
8716;SDS011;4395;48.554;8.820;2022-08-19T10:34:35;14.37;;;13.17;;
8716;SDS011;4395;48.554;8.820;2022-08-19T10:36:49;13.77;;;12.57;;
8716;SDS011;4395;48.554;8.820;2022-08-19T10:39:03;13.57;;;12.17;;
8716;SDS011;4395;48.554;8.820;2022-08-19T10:41:09;14.33;;;12.97;;
8716;SDS011;4395;48.554;8.820;2022-08-19T10:43:14;13.50;;;12.03;;
8716;SDS011;4395;48.554;8.820;2022-08-19T10:45:20;13.53;;;12.27;;
8716;SDS011;4395;48.554;8.820;2022-08-19T10:47:30;12.97;;;11.60;;
8716;SDS011;4395;48.554;8.820;2022-08-19T10:49:32;13.60;;;12.23;;
8716;SDS011;4395;48.554;8.820;2022-08-19T10:51:56;14.40;;;12.20;;
8716;SDS011;4395;48.554;8.820;2022-08-19T10:54:21;12.87;;;11.70;;
8716;SDS011;4395;48.554;8.820;2022-08-19T10:56:33;13.33;;;11.67;;
8716;SDS011;4395;48.554;8.820;2022-08-19T10:58:54;12.90;;;11.80;;
8716;SDS011;4395;48.554;8.820;2022-08-19T11:00:59;12.97;;;11.63;;
8716;SDS011;4395;48.554;8.820;2022-08-19T11:03:03;12.50;;;11.23;;
8716;SDS011;4395;48.554;8.820;2022-08-19T11:05:07;12.33;;;11.27;;
8716;SDS011;4395;48.554;8.820;2022-08-19T11:07:13;12.17;;;10.83;;
8716;SDS011;4395;48.554;8.820;2022-08-19T11:09:17;11.93;;;10.83;;
8716;SDS011;4395;48.554;8.820;2022-08-19T11:11:21;15.43;;;11.90;;
8716;SDS011;4395;48.554;8.820;2022-08-19T11:13:25;13.47;;;11.07;;
8716;SDS011;4395;48.554;8.820;2022-08-19T11:15:28;12.83;;;11.53;;
8716;SDS011;4395;48.554;8.820;2022-08-19T11:17:33;11.77;;;10.67;;
8716;SDS011;4395;48.554;8.820;2022-08-19T11:19:38;12.57;;;11.10;;
8716;SDS011;4395;48.554;8.820;2022-08-19T11:21:42;11.90;;;10.63;;
8716;SDS011;4395;48.554;8.820;2022-08-19T11:23:50;12.20;;;11.00;;
8716;SDS011;4395;48.554;8.820;2022-08-19T11:25:55;11.60;;;10.50;;
8716;SDS011;4395;48.554;8.820;2022-08-19T11:27:58;11.53;;;10.43;;
8716;SDS011;4395;48.554;8.820;2022-08-19T11:30:00;12.93;;;11.80;;
8716;SDS011;4395;48.554;8.820;2022-08-19T11:32:08;12.83;;;11.70;;
8716;SDS011;4395;48.554;8.820;2022-08-19T11:34:16;10.00;;;9.20;;
8716;SDS011;4395;48.554;8.820;2022-08-19T11:36:23;11.07;;;10.00;;
8716;SDS011;4395;48.554;8.820;2022-08-19T11:38:26;11.33;;;10.33;;
8716;SDS011;4395;48.554;8.820;2022-08-19T11:40:30;10.80;;;9.40;;
8716;SDS011;4395;48.554;8.820;2022-08-19T11:42:34;9.83;;;9.03;;
8716;SDS011;4395;48.554;8.820;2022-08-19T11:44:54;9.87;;;8.90;;
8716;SDS011;4395;48.554;8.820;2022-08-19T11:46:58;10.27;;;9.37;;
8716;SDS011;4395;48.554;8.820;2022-08-19T11:49:09;10.03;;;9.03;;
8716;SDS011;4395;48.554;8.820;2022-08-19T11:51:16;9.80;;;8.80;;
8716;SDS011;4395;48.554;8.820;2022-08-19T11:53:22;9.73;;;8.77;;
8716;SDS011;4395;48.554;8.820;2022-08-19T11:55:26;8.90;;;8.10;;
8716;SDS011;4395;48.554;8.820;2022-08-19T11:57:29;8.97;;;8.07;;
8716;SDS011;4395;48.554;8.820;2022-08-19T11:59:31;9.27;;;8.37;;
8716;SDS011;4395;48.554;8.820;2022-08-19T12:01:34;8.83;;;7.93;;
8716;SDS011;4395;48.554;8.820;2022-08-19T12:03:37;8.43;;;7.73;;
8716;SDS011;4395;48.554;8.820;2022-08-19T12:05:42;8.50;;;7.80;;
8716;SDS011;4395;48.554;8.820;2022-08-19T12:07:45;8.40;;;7.73;;
8716;SDS011;4395;48.554;8.820;2022-08-19T12:09:50;10.83;;;7.70;;
8716;SDS011;4395;48.554;8.820;2022-08-19T12:11:52;8.37;;;7.67;;
8716;SDS011;4395;48.554;8.820;2022-08-19T12:13:56;7.77;;;7.17;;
8716;SDS011;4395;48.554;8.820;2022-08-19T12:15:59;9.63;;;7.80;;
8716;SDS011;4395;48.554;8.820;2022-08-19T12:18:03;9.43;;;7.20;;
8716;SDS011;4395;48.554;8.820;2022-08-19T12:20:07;8.03;;;7.40;;
8716;SDS011;4395;48.554;8.820;2022-08-19T12:22:12;10.13;;;7.60;;
8716;SDS011;4395;48.554;8.820;2022-08-19T12:24:15;7.93;;;7.23;;
8716;SDS011;4395;48.554;8.820;2022-08-19T12:26:23;7.80;;;7.13;;
8716;SDS011;4395;48.554;8.820;2022-08-19T12:28:26;7.97;;;7.20;;
8716;SDS011;4395;48.554;8.820;2022-08-19T12:30:29;8.93;;;6.70;;
8716;SDS011;4395;48.554;8.820;2022-08-19T12:32:32;7.10;;;6.50;;
8716;SDS011;4395;48.554;8.820;2022-08-19T12:34:35;6.97;;;6.40;;
8716;SDS011;4395;48.554;8.820;2022-08-19T12:36:39;7.33;;;6.63;;
8716;SDS011;4395;48.554;8.820;2022-08-19T12:38:41;7.40;;;6.70;;
8716;SDS011;4395;48.554;8.820;2022-08-19T12:40:45;8.73;;;6.33;;
8716;SDS011;4395;48.554;8.820;2022-08-19T12:42:50;6.97;;;6.30;;
8716;SDS011;4395;48.554;8.820;2022-08-19T12:44:53;8.43;;;7.73;;